createdAt,value
2022-09-04T00:01:07.909Z,16.40
2022-09-04T00:04:19.898Z,16.40
2022-09-04T00:07:28.346Z,16.30
2022-09-04T00:10:29.995Z,16.30
2022-09-04T00:13:22.805Z,16.30
2022-09-04T00:16:20.063Z,16.30
2022-09-04T00:19:36.104Z,16.20
2022-09-04T00:22:54.152Z,16.10
2022-09-04T00:25:50.759Z,16.00
2022-09-04T00:28:53.415Z,16.00
2022-09-04T00:31:49.095Z,15.90
2022-09-04T00:34:52.729Z,15.90
2022-09-04T00:37:53.431Z,15.80
2022-09-04T00:40:52.661Z,15.80
2022-09-04T00:44:02.443Z,15.70
2022-09-04T00:47:10.889Z,15.70
2022-09-04T00:50:01.070Z,15.60
2022-09-04T00:53:18.880Z,15.60
2022-09-04T00:56:17.494Z,15.60
2022-09-04T00:59:20.455Z,15.50
2022-09-04T01:02:18.289Z,15.50
2022-09-04T01:05:18.687Z,15.40
2022-09-04T01:08:48.985Z,15.30
2022-09-04T01:14:41.804Z,15.30
2022-09-04T01:17:52.137Z,15.30
2022-09-04T01:21:10.906Z,15.30
2022-09-04T01:24:09.194Z,15.20
2022-09-04T01:27:22.469Z,15.20
2022-09-04T01:30:16.153Z,15.20
2022-09-04T01:33:24.051Z,15.20
2022-09-04T01:36:56.238Z,15.10
2022-09-04T01:39:46.478Z,15.00
2022-09-04T01:42:48.784Z,14.90
2022-09-04T01:45:53.318Z,14.90
2022-09-04T01:48:53.146Z,14.90
2022-09-04T01:51:59.581Z,14.90
2022-09-04T01:54:59.621Z,14.80
2022-09-04T01:58:17.003Z,14.70
2022-09-04T02:01:15.681Z,14.70
2022-09-04T02:04:18.213Z,14.70
2022-09-04T02:07:32.850Z,14.70
2022-09-04T02:10:36.952Z,14.50
2022-09-04T02:13:31.138Z,14.50
2022-09-04T02:16:35.135Z,14.40
2022-09-04T02:19:45.243Z,14.40
2022-09-04T02:22:48.483Z,14.50
2022-09-04T02:25:48.016Z,14.40
2022-09-04T02:28:56.086Z,14.30
2022-09-04T02:32:02.377Z,14.30
2022-09-04T02:35:12.952Z,14.30
2022-09-04T02:40:52.797Z,14.20
2022-09-04T02:43:52.815Z,14.20
2022-09-04T02:46:54.014Z,14.20
2022-09-04T02:50:32.998Z,14.20
2022-09-04T02:53:34.762Z,14.10
2022-09-04T02:56:41.367Z,14.00
2022-09-04T02:59:59.037Z,14.00
2022-09-04T03:02:58.117Z,13.90
2022-09-04T03:06:08.919Z,13.90
2022-09-04T03:09:14.902Z,13.90
2022-09-04T03:12:26.518Z,13.90
2022-09-04T03:15:23.896Z,13.80
2022-09-04T03:18:51.833Z,13.80
2022-09-04T03:22:19.219Z,13.70
2022-09-04T03:25:42.366Z,13.60
2022-09-04T03:28:41.302Z,13.50
2022-09-04T03:34:34.744Z,13.60
2022-09-04T03:37:38.144Z,13.50
2022-09-04T03:40:42.858Z,13.50
2022-09-04T03:43:37.634Z,13.50
2022-09-04T03:47:14.901Z,13.50
2022-09-04T03:53:12.626Z,13.40
2022-09-04T03:56:22.640Z,13.40
2022-09-04T03:59:14.790Z,13.30
2022-09-04T04:02:12.870Z,13.20
2022-09-04T04:05:22.428Z,13.20
2022-09-04T04:11:05.267Z,13.00
2022-09-04T04:14:03.218Z,13.00
2022-09-04T04:20:17.548Z,12.90
2022-09-04T04:23:29.264Z,12.90
2022-09-04T04:29:25.380Z,13.00
2022-09-04T04:33:17.009Z,13.10
2022-09-04T04:36:32.821Z,13.10
2022-09-04T04:39:30.451Z,13.00
2022-09-04T04:43:01.346Z,13.00
2022-09-04T04:46:12.347Z,13.00
2022-09-04T04:49:13.196Z,12.90
2022-09-04T04:52:18.534Z,12.90
2022-09-04T04:55:13.757Z,13.00
2022-09-04T04:58:42.013Z,13.00
2022-09-04T05:01:48.870Z,13.00
2022-09-04T05:05:16.136Z,13.00
2022-09-04T05:08:34.826Z,13.10
2022-09-04T05:11:35.468Z,13.10
2022-09-04T05:14:33.209Z,13.10
2022-09-04T05:17:50.131Z,13.10
2022-09-04T05:20:42.174Z,13.20
2022-09-04T05:23:52.931Z,13.20
2022-09-04T05:26:51.651Z,13.30
2022-09-04T05:29:56.916Z,13.30
2022-09-04T05:33:06.456Z,13.30
2022-09-04T05:36:17.130Z,13.30
2022-09-04T05:39:55.613Z,13.30
2022-09-04T05:43:05.268Z,13.30
2022-09-04T05:46:17.354Z,13.30
2022-09-04T05:49:39.642Z,13.40
2022-09-04T05:53:00.531Z,13.40
2022-09-04T05:56:33.583Z,13.40
2022-09-04T05:59:34.705Z,13.60
2022-09-04T06:02:47.758Z,13.60
2022-09-04T06:05:39.287Z,13.70
2022-09-04T06:08:48.727Z,13.70
2022-09-04T06:12:05.990Z,13.80
2022-09-04T06:15:32.049Z,13.90
2022-09-04T06:18:32.638Z,14.00
2022-09-04T06:21:50.585Z,14.10
2022-09-04T06:25:01.092Z,14.30
2022-09-04T06:27:52.129Z,14.20
2022-09-04T06:31:01.985Z,14.40
2022-09-04T06:34:21.696Z,14.50
2022-09-04T06:37:33.494Z,14.70
2022-09-04T06:40:50.118Z,14.70
2022-09-04T06:44:00.128Z,14.80
2022-09-04T06:47:09.716Z,15.60
2022-09-04T06:50:16.678Z,15.10
2022-09-04T06:53:21.019Z,15.30
2022-09-04T06:56:43.188Z,15.40
2022-09-04T06:59:47.839Z,15.50
2022-09-04T07:02:44.579Z,15.60
2022-09-04T07:05:36.401Z,15.70
2022-09-04T07:08:37.670Z,15.80
2022-09-04T07:11:38.244Z,16.00
2022-09-04T07:14:51.590Z,16.20
2022-09-04T07:17:46.661Z,16.40
2022-09-04T07:21:00.253Z,16.60
2022-09-04T07:24:03.864Z,16.80
2022-09-04T07:27:01.454Z,17.00
2022-09-04T07:29:58.397Z,17.20
2022-09-04T07:32:52.518Z,17.30
2022-09-04T07:35:59.760Z,17.50
2022-09-04T07:39:19.958Z,17.50
2022-09-04T07:42:23.650Z,17.60
2022-09-04T07:45:22.314Z,17.80
2022-09-04T07:48:36.084Z,17.90
2022-09-04T07:51:27.050Z,18.00
2022-09-04T07:54:31.191Z,18.10
2022-09-04T07:57:44.524Z,18.40
2022-09-04T08:00:42.398Z,18.60
2022-09-04T08:03:54.954Z,18.70
2022-09-04T08:06:48.283Z,18.90
2022-09-04T08:10:04.668Z,18.90
2022-09-04T08:13:15.035Z,18.80
2022-09-04T08:16:06.362Z,18.90
2022-09-04T08:19:29.778Z,19.10
2022-09-04T08:22:30.330Z,19.40
2022-09-04T08:25:17.841Z,19.30
2022-09-04T08:28:26.466Z,19.40
2022-09-04T08:31:29.493Z,19.50
2022-09-04T08:34:46.814Z,19.70
2022-09-04T08:37:53.210Z,19.90
2022-09-04T08:41:12.616Z,19.90
2022-09-04T08:44:33.968Z,20.20
2022-09-04T08:47:19.622Z,20.30
2022-09-04T08:50:17.672Z,20.40
2022-09-04T08:53:40.037Z,20.60
2022-09-04T08:56:45.003Z,20.70
2022-09-04T08:59:30.242Z,20.70
2022-09-04T09:02:28.099Z,20.70
2022-09-04T09:05:37.148Z,21.00
2022-09-04T09:08:41.593Z,21.00
2022-09-04T09:11:45.378Z,21.00
2022-09-04T09:14:43.164Z,21.00
2022-09-04T09:17:47.365Z,21.10
2022-09-04T09:21:05.583Z,21.30
2022-09-04T09:24:08.760Z,21.30
2022-09-04T09:27:05.469Z,21.40
2022-09-04T09:30:20.955Z,21.30
2022-09-04T09:33:36.543Z,21.40
2022-09-04T09:36:47.586Z,21.50
2022-09-04T09:39:59.395Z,21.70
2022-09-04T09:43:17.448Z,21.80
2022-09-04T09:46:40.816Z,21.90
2022-09-04T09:49:59.993Z,22.10
2022-09-04T09:53:11.343Z,22.20
2022-09-04T09:56:35.132Z,22.30
2022-09-04T09:59:45.393Z,22.40
2022-09-04T10:02:43.642Z,22.60
2022-09-04T10:05:51.781Z,22.50
2022-09-04T10:09:07.109Z,22.90
2022-09-04T10:12:16.659Z,22.80
2022-09-04T10:15:20.456Z,23.00
2022-09-04T10:18:40.046Z,23.10
2022-09-04T10:21:48.596Z,23.00
2022-09-04T10:24:57.471Z,21.10
2022-09-04T10:28:05.195Z,23.30
2022-09-04T10:31:26.941Z,23.40
2022-09-04T10:34:40.775Z,23.40
2022-09-04T10:37:53.723Z,23.30
2022-09-04T10:41:01.647Z,23.30
2022-09-04T10:44:11.432Z,23.50
2022-09-04T10:47:06.047Z,23.60
2022-09-04T10:50:25.035Z,23.70
2022-09-04T10:53:52.777Z,23.70
2022-09-04T10:56:56.325Z,23.80
2022-09-04T11:00:21.632Z,23.90
2022-09-04T11:03:44.921Z,24.10
2022-09-04T11:06:57.668Z,24.10
2022-09-04T11:09:51.499Z,24.20
2022-09-04T11:12:54.926Z,24.20
2022-09-04T11:16:29.323Z,24.20
2022-09-04T11:19:32.219Z,24.40
2022-09-04T11:22:35.907Z,24.60
2022-09-04T11:25:42.666Z,24.70
2022-09-04T11:28:44.115Z,24.80
2022-09-04T11:31:57.261Z,24.90
2022-09-04T11:35:13.888Z,25.00
2022-09-04T11:38:05.382Z,25.00
2022-09-04T11:41:15.648Z,25.20
2022-09-04T11:44:35.515Z,25.20
2022-09-04T11:47:48.579Z,25.00
2022-09-04T11:51:10.041Z,24.90
2022-09-04T11:54:18.179Z,25.00
2022-09-04T11:57:21.897Z,25.20
2022-09-04T12:00:12.136Z,25.20
2022-09-04T12:03:20.507Z,25.00
2022-09-04T12:06:23.637Z,25.20
2022-09-04T12:09:23.851Z,25.20
2022-09-04T12:12:38.732Z,25.30
2022-09-04T12:16:02.386Z,25.20
2022-09-04T12:19:17.112Z,25.20
2022-09-04T12:22:21.281Z,25.40
2022-09-04T12:25:23.623Z,25.40
2022-09-04T12:29:00.670Z,25.60
2022-09-04T12:32:00.496Z,25.40
2022-09-04T12:34:55.050Z,25.70
2022-09-04T12:38:08.886Z,26.00
2022-09-04T12:41:07.782Z,26.20
2022-09-04T12:44:03.686Z,26.30
2022-09-04T12:47:21.847Z,26.50
2022-09-04T12:50:55.329Z,26.20
2022-09-04T12:54:09.108Z,26.30
2022-09-04T12:57:15.205Z,26.20
2022-09-04T13:00:17.573Z,26.30
2022-09-04T13:03:13.111Z,26.40
2022-09-04T13:06:19.262Z,26.70
2022-09-04T13:09:11.053Z,26.70
2022-09-04T13:12:19.092Z,26.50
2022-09-04T13:15:30.185Z,26.40
2022-09-04T13:18:40.258Z,26.50
2022-09-04T13:21:51.395Z,26.60
2022-09-04T13:24:58.128Z,26.60
2022-09-04T13:27:53.349Z,26.80
2022-09-04T13:31:07.639Z,26.90
2022-09-04T13:34:30.840Z,26.90
2022-09-04T13:37:48.602Z,26.80
2022-09-04T13:41:02.118Z,26.80
2022-09-04T13:44:03.614Z,27.10
2022-09-04T13:47:00.483Z,27.40
2022-09-04T13:49:56.393Z,27.20
2022-09-04T13:52:46.009Z,26.60
2022-09-04T13:55:59.960Z,26.40
2022-09-04T13:58:52.213Z,26.50
2022-09-04T14:01:49.215Z,26.50
2022-09-04T14:04:40.393Z,26.70
2022-09-04T14:07:36.038Z,26.70
2022-09-04T14:10:58.913Z,26.80
2022-09-04T14:14:03.283Z,26.90
2022-09-04T14:16:50.206Z,27.00
2022-09-04T14:19:58.708Z,26.70
2022-09-04T14:23:06.464Z,26.80
2022-09-04T14:26:06.255Z,27.00
2022-09-04T14:29:02.714Z,27.20
2022-09-04T14:32:04.409Z,26.80
2022-09-04T14:35:02.250Z,27.10
2022-09-04T14:38:08.284Z,27.90
2022-09-04T14:41:08.486Z,28.30
2022-09-04T14:44:22.231Z,28.30
2022-09-04T14:47:25.333Z,28.60
2022-09-04T14:50:16.786Z,28.80
2022-09-04T14:53:06.029Z,29.10
2022-09-04T14:56:10.155Z,28.60
2022-09-04T14:59:07.055Z,28.20
2022-09-04T15:02:13.143Z,28.20
2022-09-04T15:05:10.494Z,28.00
2022-09-04T15:08:02.771Z,27.90
2022-09-04T15:10:51.454Z,28.30
2022-09-04T15:13:52.046Z,28.10
2022-09-04T15:16:40.305Z,27.80
2022-09-04T15:19:49.809Z,27.50
2022-09-04T15:22:42.810Z,27.40
2022-09-04T15:26:00.430Z,27.20
2022-09-04T15:28:50.461Z,27.30
2022-09-04T15:31:38.604Z,27.20
2022-09-04T15:34:26.834Z,27.30
2022-09-04T15:37:22.318Z,27.40
2022-09-04T15:40:30.439Z,27.30
2022-09-04T15:43:15.513Z,27.40
2022-09-04T15:46:21.980Z,27.10
2022-09-04T15:49:33.774Z,27.00
2022-09-04T15:52:45.609Z,26.90
2022-09-04T15:55:34.513Z,26.70
2022-09-04T15:58:32.603Z,26.60
2022-09-04T16:01:32.623Z,26.40
2022-09-04T16:05:05.157Z,26.30
2022-09-04T16:08:20.884Z,26.10
2022-09-04T16:11:19.353Z,26.00
2022-09-04T16:14:30.705Z,26.00
2022-09-04T16:17:44.060Z,25.90
2022-09-04T16:20:50.831Z,26.00
2022-09-04T16:23:38.528Z,25.80
2022-09-04T16:26:29.561Z,25.80
2022-09-04T16:29:37.377Z,25.80
2022-09-04T16:32:26.144Z,25.60
2022-09-04T16:35:19.126Z,25.60
2022-09-04T16:38:29.568Z,25.60
2022-09-04T16:41:29.170Z,25.40
2022-09-04T16:44:14.557Z,25.30
2022-09-04T16:47:15.015Z,25.00
2022-09-04T16:50:18.387Z,24.90
2022-09-04T16:53:14.187Z,24.90
2022-09-04T16:56:02.919Z,24.90
2022-09-04T17:01:47.593Z,24.70
2022-09-04T17:04:47.165Z,24.60
2022-09-04T17:07:40.636Z,24.60
2022-09-04T17:10:57.907Z,24.40
2022-09-04T17:13:52.547Z,24.30
2022-09-04T17:17:03.761Z,24.20
2022-09-04T17:20:22.423Z,24.10
2022-09-04T17:29:03.037Z,24.00
2022-09-04T17:29:14.607Z,23.90
2022-09-04T17:30:07.625Z,23.90
2022-09-04T17:38:09.085Z,23.80
2022-09-04T17:40:40.546Z,23.70
2022-09-04T17:40:48.578Z,23.70
2022-09-04T17:43:21.579Z,23.50
2022-09-04T17:46:24.545Z,23.60
2022-09-04T17:49:20.388Z,23.40
2022-09-04T17:52:08.727Z,23.20
2022-09-04T17:55:07.129Z,23.20
2022-09-04T17:58:07.458Z,23.20
2022-09-04T18:01:16.753Z,23.10
2022-09-04T18:04:37.821Z,23.00
2022-09-04T18:08:07.570Z,22.90
2022-09-04T18:11:27.403Z,22.80
2022-09-04T18:14:25.136Z,22.90
2022-09-04T18:17:21.636Z,22.90
2022-09-04T18:20:21.875Z,22.80
2022-09-04T18:23:19.351Z,22.70
2022-09-04T18:26:18.636Z,22.70
2022-09-04T18:30:27.483Z,22.60
2022-09-04T18:37:09.203Z,22.60
2022-09-04T18:37:20.595Z,22.60
2022-09-04T18:39:31.387Z,22.50
2022-09-04T18:48:58.986Z,21.40
2022-09-04T18:50:35.751Z,22.50
2022-09-04T18:50:46.231Z,22.40
2022-09-04T18:52:22.807Z,22.40
2022-09-04T18:55:23.541Z,22.40
2022-09-04T18:58:12.407Z,22.50
2022-09-04T19:01:05.007Z,22.50
2022-09-04T19:04:22.319Z,22.30
2022-09-04T19:07:23.077Z,21.20
2022-09-04T19:10:25.699Z,22.30
2022-09-04T19:13:42.604Z,22.20
2022-09-04T19:16:37.169Z,22.20
2022-09-04T19:19:31.610Z,22.20
2022-09-04T19:22:32.892Z,22.20
2022-09-04T19:25:27.755Z,22.30
2022-09-04T19:28:18.511Z,22.10
2022-09-04T19:31:10.978Z,22.20
2022-09-04T19:34:04.415Z,22.10
2022-09-04T19:37:02.292Z,23.60
2022-09-04T19:45:56.403Z,22.00
2022-09-04T19:46:04.423Z,21.90
2022-09-04T19:47:02.589Z,21.90
2022-09-04T19:53:19.219Z,21.80
2022-09-04T19:53:38.829Z,21.80
2022-09-04T19:56:35.302Z,21.70
2022-09-04T19:59:45.828Z,21.70
2022-09-04T20:02:51.834Z,21.60
2022-09-04T20:05:40.752Z,21.50
2022-09-04T20:08:37.574Z,21.50
2022-09-04T20:11:36.099Z,21.40
2022-09-04T20:14:30.179Z,21.40
2022-09-04T20:17:20.935Z,21.50
2022-09-04T20:20:21.293Z,21.50
2022-09-04T20:23:34.518Z,21.40
2022-09-04T20:26:30.522Z,21.30
2022-09-04T20:29:33.480Z,21.30
2022-09-04T20:32:37.505Z,21.20
2022-09-04T20:35:53.414Z,21.30
2022-09-04T20:39:21.083Z,21.10
2022-09-04T20:42:18.157Z,21.10
2022-09-04T20:47:55.076Z,21.00
2022-09-04T20:52:51.809Z,20.90
2022-09-04T20:52:56.434Z,19.50
2022-09-04T20:54:51.905Z,21.00
2022-09-04T21:03:12.464Z,21.00
2022-09-04T21:03:23.992Z,16.90
2022-09-04T21:05:32.601Z,20.80
2022-09-04T21:08:53.506Z,20.80
2022-09-04T21:11:47.173Z,20.70
2022-09-04T21:14:46.400Z,20.70
2022-09-04T21:18:03.518Z,20.60
2022-09-04T21:21:13.138Z,20.60
2022-09-04T21:24:44.660Z,20.50
2022-09-04T21:27:59.189Z,20.60
2022-09-04T21:30:47.529Z,20.60
2022-09-04T21:33:45.187Z,20.50
2022-09-04T21:36:40.175Z,20.30
2022-09-04T21:39:43.356Z,20.20
2022-09-04T21:42:52.864Z,20.10
2022-09-04T21:46:16.381Z,20.10
2022-09-04T21:52:02.799Z,20.10
2022-09-04T21:58:19.916Z,20.00
2022-09-04T22:02:40.290Z,19.90
2022-09-04T22:02:51.370Z,19.80
2022-09-04T22:06:19.038Z,19.80
2022-09-04T22:13:30.994Z,19.80
2022-09-04T22:13:39.419Z,19.90
2022-09-04T22:19:40.876Z,19.80
2022-09-04T22:22:55.460Z,19.90
2022-09-04T22:26:08.049Z,19.90
2022-09-04T22:29:42.812Z,19.80
2022-09-04T22:33:11.881Z,19.90
2022-09-04T22:36:35.485Z,19.90
2022-09-04T22:39:39.493Z,19.90
2022-09-04T22:42:35.960Z,19.90
2022-09-04T22:45:53.028Z,19.90
2022-09-04T22:51:38.388Z,19.90
2022-09-04T22:54:45.398Z,19.90
2022-09-04T22:58:08.256Z,19.80
2022-09-04T23:01:23.230Z,19.90
2022-09-04T23:04:40.610Z,19.90
2022-09-04T23:13:53.396Z,19.90
2022-09-04T23:14:12.283Z,19.90
2022-09-04T23:17:10.119Z,19.90
2022-09-04T23:26:33.135Z,19.90
2022-09-04T23:27:08.573Z,19.90
2022-09-04T23:30:11.783Z,19.80
2022-09-04T23:33:06.754Z,19.80
2022-09-04T23:36:08.864Z,19.70
2022-09-04T23:39:31.940Z,19.70
2022-09-04T23:42:55.407Z,19.60
2022-09-04T23:46:02.025Z,19.70
2022-09-04T23:49:15.445Z,19.60
2022-09-04T23:52:27.345Z,19.50
2022-09-04T23:55:45.040Z,19.40
2022-09-04T23:59:21.088Z,19.40
